Gonohe, Japan

12:15 AM JST on July 25, 2017 (GMT +0900)
Hachinohe Shi | | Change Station

Elev 0 ft 40.52 °N, 141.47 °E | Updated 9 minutes ago

Partly Cloudy
Partly Cloudy
73.6 °F
Feels Like 73 °F
N
0.0
Wind Variable Wind from North
Gusts 1.2 mph

Today
High -- | Low -- °F
--% Chance of Precip.
Yesterday
High -- | Low -- °F
Precip. -- in
Pressure 29.56 in
Visibility -9999.0 miles
Clouds Few 100 ft
Overcast 200 ft
Heat Index 73 °F
Dew Point 69 °F
Humidity 85%
Rainfall --
Snow Depth Not available.
4:25 AM 6:56 PM
New Moon, 2% visible
SPECI RJSH 241222Z 33003KT 290V010 4900 BR FEW001 OVC002 21/20 Q1001 RMK 2ST001 8ST002 A2957
Pressure 29.56 in
Visibility -9999.0 miles
Clouds Few 100 ft
Overcast 200 ft
Heat Index 73 °F
Dew Point 69 °F
Humidity 85%
Rainfall --
Snow Depth Not available.
4:25 AM 6:56 PM
New Moon, 2% visible
SPECI RJSH 241222Z 33003KT 290V010 4900 BR FEW001 OVC002 21/20 Q1001 RMK 2ST001 8ST002 A2957

Get Severe Weather Alerts

Thanks for signing up!

Be on the lookout for a verification email in your inbox.

You'll start receiving the daily forecast at 6 AM.

×

10-Day Weather Forecast

No radar image for this location.
×

Almanac

Astronomy

Jul. 25, 2017 Rise Set
Actual Time
Civil Twilight
Nautical Twilight
Astronomical Twilight
Moon
Length of Visible Light
Length of Day
Tomorrow will be .
, % of the Moon is Illuminated

Today's Extremes

Country Highs Country Lows

Community

WunderPhotos

Category 6

Welcome to Category 6. This is the collective home for Weather Underground's featured writeups by Dr. Jeff Masters (right), Bob Henson (left), Chris Burt, and other regular contributors.

Nearby

Air Quality

  Air Quality AQ Index Pollutant
Not available.

Snow Depth

Station Depth Elevation

Earthquake Activity

City Distance Mag. Time & Date
Minimum magnitude displayed is 2.5.

Coastal Water Temperatures

Place Temperature

Stations

Nearby Weather Stations

Station Location Temp. Windchill Dew Point Humidity Wind Precip. Elev Updated Type